Terminal Aerodrome Forecast
Issued by NWS

Home | Current Version | Previous Version | Text Only | Print | Product List | Glossary On
Versions: 1 2 3 4 5 6 7 8 9 10 11 12 13 14 15 16 17 18 19 20 21 22
000
FTUS44 KJAN 030259 AAA
TAFGTR
TAF AMD
KGTR 030259Z 0303/0324 33006KT P6SM FEW010 BKN050 OVC080
     FM030500 34005KT P6SM OVC007
     FM031500 36006KT P6SM BKN050=

USA.gov is the U.S. government's official web portal to all federal, state and local government web resources and services.